ADDS TAF Board (Experimental) INFO Settings
IDs: Format: Expanded Condensed

KLAS - Las Vegas/McCarran I, NV, US

Issued at 1120 UTC 28 Jul 2016
Updated at 1430 UTC 28 Jul 2016
Time1356Z 28/15Z 28/16Z 28/17Z 28/18Z 28/19Z 28/20Z 28/21Z 28/22Z 28/23Z 29/00Z 29/01Z 29/02Z 29/03Z
Type OBS PRVL PRVL PRVL PRVL PRVL PRVL PRVL PRVL PRVL PRVL PRVL PRVL PRVL
VIS 10 >6 >6 >6 >6 >6 >6 >6 >6 >6 >6 >6 >6 >6
CIG -- -- -- -- -- -- -- -- -- -- -- -- -- 250
Cover SCT FEW FEW FEW FEW SCT SCT SCT SCT SCT SCT SCT SCT BKN
FltCat VFR VFR VFR VFR VFR VFR VFR VFR VFR VFR VFR VFR VFR VFR
WX -- -- -- -- -- -- -- -- -- -- -- -- -- --
WDir VRB VRB VRB VRB VRB 140 140 140 140 140 140 140 140 210
WSpd 0 5 5 5 5 7 7 7 7 7 7 7 7 8
WGst -- -- -- -- -- -- -- -- -- -- -- -- -- --
R01/19
XWnd VRB VRB VRB VRB VRB -6 -6 -6 -6 -6 -6 -6 -6 1
HWnd VRB VRB VRB VRB VRB -3 -3 -3 -3 -3 -3 -3 -3 -8
R07/25
XWnd VRB VRB VRB VRB VRB -5 -5 -5 -5 -5 -5 -5 -5 -7
HWnd VRB VRB VRB VRB VRB 4 4 4 4 4 4 4 4 -4

Raw TAF
KLAS 281120Z 2812/2912 VRB05KT P6SM FEW150
  FM281900 14007KT P6SM SCT120 SCT250
  FM290300 21008KT P6SM FEW120 BKN250


Raw METAR
KLAS 281356Z 00000KT 10SM FEW150 SCT180 SCT220 34/07 A2984 RMK AO2 SLP068 ACC SE-S AND DSNT NE T03440072
KLAS 281256Z 00000KT 10SM SCT150 BKN200 34/07 A2981 RMK AO2 SLP059 ACC DSNT N-E-SE T03390067
KLAS 281156Z 21003KT 10SM FEW200 33/07 A2979 RMK AO2 SLP053 T03330067 10389 20333 53004

METAR Board
Radar Display
Forecast Discussion

TAF Board Legend

Potential Impact
Threat None Slight Moderate High
Visibility (sm) ≥5.1 5.1>X≥3 3>X≥1 <1
Ceiling (100 ft) ≥30.1 30.1>X≥10 10>X≥5 <5
Wind Speed (kt) <10 10≤X<20 20≤X<30 ≥30
Wind Gust (kt) <15 15≤X<25 25≤X<35 ≥35
Weather No Wx Reported VCTS,-TS,-FZRA,SN TS,FZRA +TS,+FZRA,+SN